Terminal Aerodrome Forecast
Issued by NWS Sioux Falls, SD

Home | Current Version | Previous Version | Text Only | Print | Product List | Glossary On
Versions: 1 2 3 4 5 6 7 8 9 10 11 12 13 14 15 16
780
FTUS43 KFSD 271120
TAFHON
TAF
KHON 271120Z 2712/2812 VRB03KT P6SM BKN150
     FM271600 03006KT P6SM OVC060
     FM271800 03007KT P6SM SHRA BKN080
      TEMPO 2718/2720 4SM TS OVC040CB
     FM272200 01008KT P6SM BKN060
     FM280700 01004KT P6SM BKN080=

USA.gov is the U.S. government's official web portal to all federal, state and local government web resources and services.